createdAt,value
2018-04-18T02:58:44.840Z,12.32
2018-04-18T03:01:14.092Z,12.25
2018-04-18T03:03:42.300Z,12.23
2018-04-18T03:06:11.633Z,12.22
2018-04-18T03:08:39.687Z,12.19
2018-04-18T03:11:08.086Z,12.17
2018-04-18T03:13:36.492Z,12.14
2018-04-18T03:16:07.297Z,12.17
2018-04-18T03:18:35.709Z,12.14
2018-04-18T03:21:04.160Z,12.16
2018-04-18T03:23:32.502Z,12.20
2018-04-18T03:26:00.748Z,12.20
2018-04-18T03:28:30.121Z,12.20
2018-04-18T03:30:59.395Z,12.20
2018-04-18T03:33:30.426Z,12.21
2018-04-18T03:35:58.925Z,12.22
2018-04-18T03:38:30.080Z,12.18
2018-04-18T03:40:58.500Z,12.17
2018-04-18T03:43:26.603Z,12.13
2018-04-18T03:45:56.707Z,12.12
2018-04-18T03:48:25.119Z,12.09
2018-04-18T03:50:58.766Z,12.07
2018-04-18T03:53:27.225Z,12.08
2018-04-18T03:55:55.645Z,12.06
2018-04-18T03:58:26.409Z,12.07
2018-04-18T04:00:55.777Z,12.04
2018-04-18T04:03:24.183Z,12.05
2018-04-18T04:05:53.022Z,12.02
2018-04-18T04:08:21.314Z,11.99
2018-04-18T04:10:50.380Z,12.00
2018-04-18T04:13:18.585Z,11.96
2018-04-18T04:15:47.610Z,11.96
2018-04-18T04:21:36.616Z,11.95
2018-04-18T04:24:16.594Z,11.93
2018-04-18T04:26:44.991Z,11.95
2018-04-18T04:29:13.574Z,11.97
2018-04-18T04:31:41.958Z,12.01
2018-04-18T04:34:10.738Z,12.04
2018-04-18T04:36:39.209Z,12.08
2018-04-18T04:39:07.589Z,12.15
2018-04-18T04:41:37.702Z,12.23
2018-04-18T04:44:06.213Z,12.30
2018-04-18T04:46:35.246Z,12.28
2018-04-18T04:49:03.458Z,12.23
2018-04-18T04:51:31.848Z,12.31
2018-04-18T04:54:00.539Z,12.32
2018-04-18T04:56:28.971Z,12.33
2018-04-18T04:58:57.538Z,12.38
2018-04-18T05:01:27.302Z,12.43
2018-04-18T05:03:56.966Z,12.48
2018-04-18T05:06:27.900Z,12.51
2018-04-18T05:08:56.067Z,12.56
2018-04-18T05:11:24.183Z,12.62
2018-04-18T05:13:53.383Z,12.68
2018-04-18T05:16:21.806Z,12.78
2018-04-18T05:18:50.240Z,12.85
2018-04-18T05:21:18.620Z,12.92
2018-04-18T05:23:46.786Z,12.97
2018-04-18T05:26:14.937Z,13.00
2018-04-18T05:28:43.341Z,13.08
2018-04-18T05:31:12.242Z,13.14
2018-04-18T05:33:41.486Z,13.21
2018-04-18T05:36:10.551Z,13.27
2018-04-18T05:38:39.053Z,13.31
2018-04-18T05:41:07.453Z,13.45
2018-04-18T05:43:35.845Z,13.53
2018-04-18T05:46:03.995Z,13.63
2018-04-18T05:48:32.390Z,13.78
2018-04-18T05:51:00.841Z,13.91
2018-04-18T05:53:29.374Z,13.98
2018-04-18T05:55:58.122Z,14.12
2018-04-18T05:58:26.535Z,14.20
2018-04-18T06:00:54.744Z,14.25
2018-04-18T06:03:23.345Z,14.26
2018-04-18T06:05:51.757Z,14.34
2018-04-18T06:08:21.137Z,14.23
2018-04-18T06:10:49.582Z,14.40
2018-04-18T06:13:17.737Z,14.48
2018-04-18T06:15:46.782Z,14.53
2018-04-18T06:18:15.262Z,14.60
2018-04-18T06:20:43.657Z,14.70
2018-04-18T06:23:12.048Z,14.80
2018-04-18T06:25:40.489Z,14.87
2018-04-18T06:28:08.909Z,14.95
2018-04-18T06:30:39.469Z,15.06
2018-04-18T06:33:10.889Z,15.18
2018-04-18T06:35:39.351Z,15.26
2018-04-18T06:38:08.071Z,15.37
2018-04-18T06:40:36.253Z,15.44
2018-04-18T06:43:04.722Z,15.51
2018-04-18T06:45:33.482Z,15.40
2018-04-18T06:48:01.914Z,15.50
2018-04-18T06:50:30.298Z,15.40
2018-04-18T06:52:58.718Z,15.44
2018-04-18T06:55:28.685Z,15.58
2018-04-18T06:57:57.793Z,15.62
2018-04-18T07:00:26.236Z,15.71
2018-04-18T07:02:54.636Z,15.74
2018-04-18T07:05:23.009Z,15.92
2018-04-18T07:07:51.401Z,15.94
2018-04-18T07:10:19.825Z,15.76
2018-04-18T07:12:48.003Z,15.86
2018-04-18T07:15:18.025Z,15.96
2018-04-18T07:17:46.639Z,16.03
2018-04-18T07:20:17.290Z,15.97
2018-04-18T07:22:45.717Z,16.13
2018-04-18T07:25:17.875Z,16.27
2018-04-18T07:27:46.254Z,16.28
2018-04-18T07:30:15.966Z,16.34
2018-04-18T07:32:44.344Z,16.43
2018-04-18T07:35:19.221Z,16.46
2018-04-18T07:37:47.619Z,16.45
2018-04-18T07:40:16.011Z,16.54
2018-04-18T07:42:44.405Z,16.60
2018-04-18T07:45:20.975Z,16.57
2018-04-18T07:47:49.466Z,16.60
2018-04-18T07:50:17.854Z,16.59
2018-04-18T07:52:46.238Z,16.84
2018-04-18T07:55:19.568Z,16.93
2018-04-18T07:57:47.970Z,16.95
2018-04-18T08:00:19.275Z,17.02
2018-04-18T08:02:47.860Z,17.02
2018-04-18T08:05:16.266Z,17.23
2018-04-18T08:07:44.646Z,16.84
2018-04-18T08:10:15.175Z,17.27
2018-04-18T08:12:43.445Z,17.29
2018-04-18T08:15:12.566Z,17.37
2018-04-18T08:17:41.144Z,17.49
2018-04-18T08:20:17.675Z,17.53
2018-04-18T08:22:45.853Z,17.56
2018-04-18T08:25:18.712Z,17.42
2018-04-18T08:27:55.493Z,17.34
2018-04-18T08:30:24.107Z,17.45
2018-04-18T08:32:52.494Z,17.41
2018-04-18T08:35:20.687Z,17.64
2018-04-18T08:37:50.048Z,17.60
2018-04-18T08:40:19.435Z,17.49
2018-04-18T08:42:47.614Z,17.39
2018-04-18T08:45:19.588Z,17.62
2018-04-18T08:47:47.986Z,17.62
2018-04-18T08:50:16.459Z,17.89
2018-04-18T08:52:44.631Z,17.83
2018-04-18T08:55:19.397Z,17.87
2018-04-18T08:57:47.825Z,17.90
2018-04-18T09:00:18.182Z,17.92
2018-04-18T09:02:46.546Z,17.94
2018-04-18T09:05:18.409Z,17.82
2018-04-18T09:07:46.838Z,18.08
2018-04-18T09:10:15.249Z,18.15
2018-04-18T09:12:43.665Z,18.19
2018-04-18T09:15:12.532Z,18.16
2018-04-18T09:17:40.956Z,18.25
2018-04-18T09:20:16.230Z,18.45
2018-04-18T09:22:44.634Z,18.20
2018-04-18T09:25:14.573Z,18.21
2018-04-18T09:27:42.965Z,18.44
2018-04-18T09:30:11.434Z,18.34
2018-04-18T09:32:39.837Z,18.42
2018-04-18T09:35:10.165Z,18.72
2018-04-18T09:37:38.325Z,18.75
2018-04-18T09:40:06.753Z,18.74
2018-04-18T09:42:35.143Z,18.65
2018-04-18T09:45:03.525Z,18.48
2018-04-18T09:47:31.962Z,18.59
2018-04-18T09:50:00.338Z,18.77
2018-04-18T09:52:28.738Z,19.06
2018-04-18T09:54:57.148Z,19.42
2018-04-18T09:57:25.555Z,19.60
2018-04-18T09:59:53.958Z,20.05
2018-04-18T10:02:27.717Z,20.33
2018-04-18T10:04:55.887Z,20.55
2018-04-18T10:07:24.269Z,20.52
2018-04-18T10:09:52.645Z,20.91
2018-04-18T10:12:21.498Z,20.92
2018-04-18T10:14:49.944Z,20.63
2018-04-18T10:17:18.341Z,20.67
2018-04-18T10:19:46.736Z,20.51
2018-04-18T10:22:15.128Z,20.90
2018-04-18T10:24:43.555Z,21.28
2018-04-18T10:27:11.943Z,21.20
2018-04-18T10:29:40.361Z,21.29
2018-04-18T10:32:08.757Z,21.04
2018-04-18T10:34:37.158Z,21.45
2018-04-18T10:37:05.133Z,21.64
2018-04-18T10:39:33.299Z,20.98
2018-04-18T10:42:01.691Z,20.94
2018-04-18T10:44:30.162Z,20.76
2018-04-18T10:46:58.561Z,20.85
2018-04-18T10:49:26.949Z,21.07
2018-04-18T10:51:55.098Z,21.21
2018-04-18T10:54:23.256Z,20.81
2018-04-18T10:56:51.630Z,20.73
2018-04-18T10:59:20.021Z,20.46
2018-04-18T11:01:48.399Z,20.34
2018-04-18T11:04:16.790Z,20.14
2018-04-18T11:06:45.174Z,20.42
2018-04-18T11:09:13.559Z,20.48
2018-04-18T11:11:41.947Z,20.71
2018-04-18T11:14:11.080Z,20.77
2018-04-18T11:16:39.449Z,20.71
2018-04-18T11:19:07.840Z,20.78
2018-04-18T11:21:36.290Z,21.01
2018-04-18T11:24:04.442Z,21.18
2018-04-18T11:26:32.813Z,21.48
2018-04-18T11:29:01.201Z,21.45
2018-04-18T11:31:29.591Z,21.46
2018-04-18T11:33:57.996Z,21.13
2018-04-18T11:36:26.371Z,21.14
2018-04-18T11:38:54.762Z,21.23
2018-04-18T11:41:23.137Z,21.40
2018-04-18T11:43:51.509Z,21.44
2018-04-18T11:46:19.891Z,21.50
2018-04-18T11:48:48.277Z,21.55
2018-04-18T11:51:16.651Z,21.61
2018-04-18T11:53:44.824Z,21.40
2018-04-18T11:56:13.237Z,21.40
2018-04-18T11:58:41.633Z,21.45
2018-04-18T12:01:10.033Z,21.60
2018-04-18T12:03:38.447Z,21.78
2018-04-18T12:06:06.837Z,21.63
2018-04-18T12:08:35.240Z,21.68
2018-04-18T12:11:03.650Z,21.99
2018-04-18T12:13:32.226Z,22.24
2018-04-18T12:16:00.608Z,22.21
2018-04-18T12:18:29.018Z,22.01
2018-04-18T12:20:57.176Z,22.04
2018-04-18T12:23:25.559Z,22.16
2018-04-18T12:25:53.947Z,22.22
2018-04-18T12:28:22.330Z,22.15
2018-04-18T12:30:50.706Z,22.10
2018-04-18T12:33:19.085Z,22.03
2018-04-18T12:35:47.485Z,22.07
2018-04-18T12:38:15.849Z,22.17
2018-04-18T12:40:44.025Z,22.48
2018-04-18T12:43:12.470Z,22.46
2018-04-18T12:45:40.856Z,22.29
2018-04-18T12:48:09.266Z,22.19
2018-04-18T12:50:37.633Z,22.33
2018-04-18T12:53:06.039Z,22.16
2018-04-18T12:55:34.431Z,22.02
2018-04-18T12:58:02.901Z,22.24
2018-04-18T13:00:31.294Z,22.20
2018-04-18T13:02:59.674Z,22.15
2018-04-18T13:05:28.111Z,21.94
2018-04-18T13:07:56.281Z,22.10
2018-04-18T13:10:24.665Z,22.18
2018-04-18T13:12:53.072Z,22.36
2018-04-18T13:15:21.476Z,22.35
2018-04-18T13:17:49.645Z,22.38
2018-04-18T13:20:18.024Z,22.18
2018-04-18T13:22:46.412Z,22.23
2018-04-18T13:25:16.576Z,22.21
2018-04-18T13:27:47.972Z,22.46
2018-04-18T13:30:16.370Z,22.51
2018-04-18T13:32:44.746Z,22.34
2018-04-18T13:35:13.518Z,22.60
2018-04-18T13:37:41.719Z,22.56
2018-04-18T13:40:09.873Z,22.60
2018-04-18T13:42:38.050Z,22.26
2018-04-18T13:45:13.108Z,22.44
2018-04-18T13:47:41.251Z,22.66
2018-04-18T13:50:19.183Z,22.52
2018-04-18T13:52:47.593Z,22.71
2018-04-18T13:55:19.502Z,22.65
2018-04-18T13:57:47.895Z,22.65
2018-04-18T14:00:16.285Z,22.49
2018-04-18T14:02:47.221Z,22.79
2018-04-18T14:05:15.603Z,22.69
2018-04-18T14:07:44.052Z,22.48
2018-04-18T14:10:14.993Z,22.37
2018-04-18T14:12:43.398Z,22.31
2018-04-18T14:15:15.319Z,22.14
2018-04-18T14:17:43.869Z,22.22
2018-04-18T14:20:15.643Z,22.24
2018-04-18T14:22:44.015Z,22.54
2018-04-18T14:25:12.390Z,22.25
2018-04-18T14:27:40.771Z,22.48
2018-04-18T14:30:11.339Z,22.18
2018-04-18T14:32:39.721Z,22.76
2018-04-18T14:35:15.368Z,22.35
2018-04-18T14:37:43.785Z,22.61
2018-04-18T14:40:12.366Z,22.34
2018-04-18T14:42:40.794Z,22.50
2018-04-18T14:45:12.084Z,22.60
2018-04-18T14:47:40.480Z,22.60
2018-04-18T14:50:14.920Z,22.51
2018-04-18T14:52:44.212Z,22.57
2018-04-18T14:55:16.973Z,22.63
2018-04-18T14:57:45.349Z,22.77
2018-04-18T15:00:14.229Z,22.61
2018-04-18T15:02:42.604Z,22.47
2018-04-18T15:05:17.438Z,22.50
2018-04-18T15:07:45.970Z,22.58
2018-04-18T15:10:18.140Z,22.61
2018-04-18T15:12:46.535Z,22.64
2018-04-18T15:15:14.919Z,22.50
2018-04-18T15:17:43.301Z,22.42
2018-04-18T15:20:14.865Z,22.47
2018-04-18T15:22:43.314Z,22.51
2018-04-18T15:25:17.347Z,22.56
2018-04-18T15:27:45.727Z,22.41
2018-04-18T15:30:17.150Z,22.45
2018-04-18T15:32:45.565Z,22.42
2018-04-18T15:35:14.785Z,22.49
2018-04-18T15:37:43.184Z,22.51
2018-04-18T15:40:18.077Z,22.48
2018-04-18T15:42:46.464Z,22.61
2018-04-18T15:45:20.987Z,22.60
2018-04-18T15:47:49.373Z,22.60
2018-04-18T15:50:17.747Z,22.42
2018-04-18T15:52:46.130Z,22.41
2018-04-18T15:55:17.626Z,22.42
2018-04-18T15:57:46.048Z,22.46
2018-04-18T16:00:14.948Z,22.44
2018-04-18T16:02:43.670Z,22.41
2018-04-18T16:05:15.750Z,22.45
2018-04-18T16:07:44.146Z,22.53
2018-04-18T16:10:13.955Z,22.56
2018-04-18T16:12:42.320Z,22.55
2018-04-18T16:15:12.009Z,22.55
2018-04-18T16:17:41.190Z,22.52
2018-04-18T16:20:11.510Z,22.60
2018-04-18T16:22:40.564Z,22.60
2018-04-18T16:25:15.909Z,22.41
2018-04-18T16:27:44.308Z,22.62
2018-04-18T16:33:22.903Z,22.54
2018-04-18T16:35:51.310Z,22.54
2018-04-18T16:38:19.692Z,22.55
2018-04-18T16:40:48.099Z,22.56
2018-04-18T16:43:16.578Z,22.54
2018-04-18T16:45:44.951Z,22.48
2018-04-18T16:48:13.100Z,22.46
2018-04-18T16:50:41.482Z,22.47
2018-04-18T16:53:09.884Z,22.48
2018-04-18T16:55:38.262Z,22.40
2018-04-18T16:58:07.886Z,22.32
2018-04-18T17:00:36.272Z,22.33
2018-04-18T17:03:04.341Z,22.30
2018-04-18T17:05:32.813Z,22.29
2018-04-18T17:08:01.207Z,22.29
2018-04-18T17:10:29.615Z,22.26
2018-04-18T17:12:58.034Z,22.21
2018-04-18T17:15:26.417Z,22.15
2018-04-18T17:17:54.794Z,22.15
2018-04-18T17:20:23.334Z,22.13
2018-04-18T17:22:51.791Z,22.13
2018-04-18T17:25:20.169Z,22.11
2018-04-18T17:27:48.336Z,22.09
2018-04-18T17:30:16.714Z,22.08
2018-04-18T17:32:45.095Z,22.07
2018-04-18T17:35:16.722Z,22.00
2018-04-18T17:37:45.110Z,21.92
2018-04-18T17:40:18.437Z,21.90
2018-04-18T17:42:46.883Z,21.85
2018-04-18T17:45:15.926Z,21.82
2018-04-18T17:47:45.175Z,21.80
2018-04-18T17:50:17.011Z,21.77
2018-04-18T17:52:45.381Z,21.74
2018-04-18T17:55:18.745Z,21.67
2018-04-18T17:57:47.189Z,21.55
2018-04-18T18:00:18.207Z,20.77
2018-04-18T18:02:46.620Z,21.34
2018-04-18T18:05:15.092Z,21.31
2018-04-18T18:07:43.473Z,21.23
2018-04-18T18:10:19.251Z,21.18
2018-04-18T18:12:48.527Z,21.05
2018-04-18T18:15:19.288Z,20.76
2018-04-18T18:17:47.751Z,20.82
2018-04-18T18:20:19.560Z,20.72
2018-04-18T18:22:47.941Z,20.68
2018-04-18T18:25:18.208Z,20.65
2018-04-18T18:27:46.508Z,20.57
2018-04-18T18:30:17.974Z,20.66
2018-04-18T18:32:46.357Z,20.56
2018-04-18T18:35:20.897Z,20.43
2018-04-18T18:37:49.304Z,20.52
2018-04-18T18:40:19.157Z,20.48
2018-04-18T18:42:47.543Z,20.37
2018-04-18T18:45:21.769Z,20.23
2018-04-18T18:47:50.162Z,20.04
2018-04-18T18:50:19.308Z,19.50
2018-04-18T18:52:47.712Z,19.74
2018-04-18T18:55:18.877Z,19.59
2018-04-18T18:57:47.287Z,19.42
2018-04-18T19:00:17.944Z,19.31
2018-04-18T19:02:46.525Z,19.25
2018-04-18T19:05:17.924Z,18.90
2018-04-18T19:07:46.309Z,19.14
2018-04-18T19:10:19.093Z,18.51
2018-04-18T19:12:47.496Z,18.89
2018-04-18T19:15:18.925Z,18.79
2018-04-18T19:17:47.334Z,18.91
2018-04-18T19:20:23.327Z,18.84
2018-04-18T19:22:51.793Z,18.78
2018-04-18T19:25:20.181Z,18.68
2018-04-18T19:27:48.579Z,18.63
2018-04-18T19:30:18.270Z,18.57
2018-04-18T19:32:46.670Z,18.57
2018-04-18T19:35:18.689Z,18.54
2018-04-18T19:37:47.102Z,18.51
2018-04-18T19:40:18.452Z,18.44
2018-04-18T19:42:46.868Z,18.39
2018-04-18T19:45:17.871Z,18.39
2018-04-18T19:47:46.286Z,18.32
2018-04-18T19:50:18.050Z,18.16
2018-04-18T19:52:46.452Z,18.06
2018-04-18T19:55:17.904Z,18.00
2018-04-18T19:57:46.314Z,17.90
2018-04-18T20:00:18.305Z,17.93
2018-04-18T20:02:46.710Z,17.95
2018-04-18T20:05:18.497Z,17.99
2018-04-18T20:07:46.938Z,18.05
2018-04-18T20:10:19.239Z,18.01
2018-04-18T20:12:47.621Z,18.03
2018-04-18T20:15:18.931Z,18.07
2018-04-18T20:17:47.368Z,18.00
2018-04-18T20:20:18.582Z,17.84
2018-04-18T20:22:46.998Z,17.70
2018-04-18T20:25:17.939Z,17.37
2018-04-18T20:27:46.350Z,17.49
2018-04-18T20:30:14.784Z,17.41
2018-04-18T20:32:43.369Z,17.36
2018-04-18T20:35:17.912Z,17.32
2018-04-18T20:37:46.828Z,17.24
2018-04-18T20:40:17.814Z,17.16
2018-04-18T20:42:57.238Z,17.08
2018-04-18T20:45:25.619Z,17.03
2018-04-18T20:47:53.994Z,16.95
2018-04-18T20:50:22.548Z,16.88
2018-04-18T20:52:51.002Z,16.84
2018-04-18T20:55:22.183Z,16.76
2018-04-18T20:57:50.770Z,16.64
2018-04-18T21:00:19.312Z,16.55
2018-04-18T21:02:47.699Z,16.58
2018-04-18T21:05:17.657Z,16.58
2018-04-18T21:07:46.063Z,16.55
2018-04-18T21:10:17.620Z,16.56
2018-04-18T21:12:46.003Z,16.60
2018-04-18T21:15:16.553Z,16.62
2018-04-18T21:17:44.929Z,16.54
2018-04-18T21:20:16.582Z,16.52
2018-04-18T21:22:44.985Z,16.47
2018-04-18T21:25:14.057Z,16.37
2018-04-18T21:27:42.536Z,16.35
2018-04-18T21:30:15.796Z,16.38
2018-04-18T21:32:44.207Z,16.25
2018-04-18T21:35:12.594Z,15.68
2018-04-18T21:37:40.989Z,16.18
2018-04-18T21:40:18.173Z,15.76
2018-04-18T21:42:46.321Z,16.11
2018-04-18T21:45:18.736Z,15.69
2018-04-18T21:47:47.124Z,16.11
2018-04-18T21:50:18.734Z,16.04
2018-04-18T21:52:47.105Z,15.85
2018-04-18T21:55:18.585Z,15.92
2018-04-18T21:57:46.975Z,15.92
2018-04-18T22:00:18.733Z,15.89
2018-04-18T22:02:47.970Z,15.94
2018-04-18T22:05:30.089Z,15.58
2018-04-18T22:07:58.390Z,16.00
2018-04-18T22:10:26.914Z,15.82
2018-04-18T22:12:55.280Z,15.96
2018-04-18T22:15:24.523Z,15.86
2018-04-18T22:17:52.912Z,15.85
2018-04-18T22:20:21.384Z,15.87
2018-04-18T22:22:49.823Z,15.84
2018-04-18T22:25:18.535Z,15.79
2018-04-18T22:27:46.964Z,15.76
2018-04-18T22:30:17.411Z,15.76
2018-04-18T22:32:45.832Z,15.74
2018-04-18T22:35:17.526Z,15.68
2018-04-18T22:37:45.903Z,15.68
2018-04-18T22:40:19.019Z,15.75
2018-04-18T22:42:47.398Z,15.46
2018-04-18T22:45:17.847Z,15.16
2018-04-18T22:47:46.223Z,15.87
2018-04-18T22:50:18.560Z,15.87
2018-04-18T22:52:46.695Z,15.72
2018-04-18T22:55:18.678Z,15.70
2018-04-18T22:57:47.053Z,15.68
2018-04-18T23:00:21.948Z,15.66
2018-04-18T23:02:50.532Z,15.63
2018-04-18T23:05:20.190Z,15.60
2018-04-18T23:07:48.565Z,15.58
2018-04-18T23:10:18.216Z,15.57
2018-04-18T23:12:46.621Z,15.53
2018-04-18T23:15:16.901Z,15.53
2018-04-18T23:17:45.276Z,15.23
2018-04-18T23:20:18.641Z,15.61
2018-04-18T23:22:47.188Z,15.63
2018-04-18T23:25:18.295Z,15.72
2018-04-18T23:27:46.878Z,15.73
2018-04-18T23:30:15.285Z,15.60
2018-04-18T23:32:43.685Z,15.50
2018-04-18T23:35:17.833Z,15.50
2018-04-18T23:37:46.417Z,15.46
2018-04-18T23:40:14.806Z,15.10
2018-04-18T23:42:43.247Z,15.41
2018-04-18T23:45:18.144Z,15.37
2018-04-18T23:47:46.554Z,15.35
2018-04-18T23:50:18.377Z,15.39
2018-04-18T23:52:46.545Z,15.42
2018-04-18T23:55:14.916Z,15.35
2018-04-18T23:57:43.321Z,15.35
